Time;durP1;ratioP1;P1;durP2;ratioP2;P2;SDS_P1;SDS_P2;PMS_P1;PMS_P2;Temp;Humidity;BMP_temperature;BMP_pressure;BME280_temperature;BME280_humidity;BME280_pressure;Samples;Min_cycle;Max_cycle;Signal;HPM_P1;HPM_P2
2023/03/23 00:02:35;;;;;;;24.90;23.60;;;;;;;15.91;57.09;100107.50;5034922;28;20126;-78
2023/03/23 00:05:09;;;;;;;24.40;23.17;;;;;;;15.90;57.10;100123.03;5034958;28;20228;-78
2023/03/23 00:07:35;;;;;;;25.48;23.95;;;;;;;15.92;57.25;100120.81;5034197;28;20036;-78
2023/03/23 00:10:02;;;;;;;26.00;24.55;;;;;;;15.93;57.19;100117.00;5033890;28;20032;-74
2023/03/23 00:12:33;;;;;;;24.23;22.52;;;;;;;15.93;57.59;100122.44;5034218;28;20060;-79
2023/03/23 00:15:07;;;;;;;26.15;24.65;;;;;;;15.93;57.13;100121.66;5034113;28;20021;-78
2023/03/23 00:17:33;;;;;;;25.73;24.42;;;;;;;15.92;57.11;100131.69;5034027;28;20033;-78
2023/03/23 00:20:00;;;;;;;26.05;24.58;;;;;;;15.94;57.47;100139.59;5034413;28;20036;-77
2023/03/23 00:22:28;;;;;;;25.15;23.77;;;;;;;15.93;57.22;100146.97;5033750;28;20029;-77
2023/03/23 00:24:54;;;;;;;27.48;25.88;;;;;;;15.91;57.51;100146.44;5033703;28;20041;-79
2023/03/23 00:27:21;;;;;;;25.27;23.98;;;;;;;15.91;57.53;100140.19;5032956;28;20030;-79
2023/03/23 00:29:52;;;;;;;25.10;23.60;;;;;;;15.91;57.01;100140.19;5049282;28;20036;-76
2023/03/23 00:32:20;;;;;;;25.38;23.98;;;;;;;15.91;57.42;100137.47;5034302;28;20030;-76
2023/03/23 00:34:48;;;;;;;26.38;24.83;;;;;;;15.91;57.00;100124.66;5034500;28;20040;-75
2023/03/23 00:37:16;;;;;;;25.08;23.77;;;;;;;15.93;56.93;100106.09;5033947;28;20026;-78
2023/03/23 00:39:45;;;;;;;26.15;24.75;;;;;;;15.92;57.13;100087.31;5033266;28;20385;-76
2023/03/23 00:42:10;;;;;;;;;;;;;;;15.89;57.34;100082.47;5033934;28;20488;-76
2023/03/23 00:44:35;;;;;;;23.90;22.58;;;;;;;15.90;57.24;100046.78;5032517;28;19920;-77
2023/03/23 00:47:02;;;;;;;27.23;25.63;;;;;;;15.88;56.97;100029.91;5033823;28;20040;-79
2023/03/23 00:49:34;;;;;;;25.40;24.10;;;;;;;15.88;57.35;100048.97;5034408;28;20037;-76
2023/03/23 00:52:00;;;;;;;27.35;25.55;;;;;;;15.91;57.11;100044.84;5033601;28;20041;-78
2023/03/23 00:54:27;;;;;;;25.13;23.73;;;;;;;15.91;57.46;100053.03;5034255;28;20030;-78
2023/03/23 00:56:52;;;;;;;26.27;24.77;;;;;;;15.91;56.99;100064.72;5048924;28;20036;-78
2023/03/23 00:59:18;;;;;;;24.10;22.88;;;;;;;15.92;57.42;100068.25;5033628;28;20037;-78
2023/03/23 01:01:44;;;;;;;24.88;23.58;;;;;;;15.94;57.47;100068.78;5036677;28;20033;-78
2023/03/23 01:04:11;;;;;;;26.13;24.70;;;;;;;15.92;57.21;100079.94;5037689;28;20106;-77
2023/03/23 01:06:39;;;;;;;25.85;24.45;;;;;;;15.92;57.42;100088.13;5037667;28;20072;-78
2023/03/23 01:09:10;;;;;;;27.58;25.98;;;;;;;15.89;57.22;100064.22;5038161;28;20034;-77
2023/03/23 01:11:35;;;;;;;25.67;24.38;;;;;;;15.91;57.13;100053.84;5037252;28;20111;-77
2023/03/23 01:14:01;;;;;;;25.33;23.92;;;;;;;15.91;57.09;100075.63;5037379;28;20478;-78
2023/03/23 01:16:27;;;;;;;25.58;24.17;;;;;;;15.92;57.28;100070.97;5037907;28;20033;-77
2023/03/23 01:18:52;;;;;;;26.08;24.58;;;;;;;15.92;57.18;100060.88;5037151;28;20052;-78
2023/03/23 01:21:19;;;;;;;25.85;24.35;;;;;;;15.93;57.09;100051.63;5037085;28;20033;-77
2023/03/23 01:23:46;;;;;;;25.45;24.05;;;;;;;15.91;57.29;100042.94;5037630;28;20038;-77
2023/03/23 01:26:15;;;;;;;24.55;23.25;;;;;;;15.91;57.29;100062.00;5037053;28;20037;-77
2023/03/23 01:28:41;;;;;;;24.92;23.65;;;;;;;15.91;57.61;100056.56;5037339;28;20061;-77
2023/03/23 01:31:11;;;;;;;25.90;24.38;;;;;;;15.92;57.15;100055.44;5036922;28;20488;-77
2023/03/23 01:33:37;;;;;;;26.60;25.20;;;;;;;15.91;57.54;100044.84;5036860;28;20025;-78
2023/03/23 01:36:05;;;;;;;27.48;25.98;;;;;;;15.89;57.38;100045.13;5037605;28;20033;-78
2023/03/23 01:38:31;;;;;;;25.05;23.58;;;;;;;15.90;57.54;100040.50;5037219;28;20033;-78
2023/03/23 01:40:57;;;;;;;25.30;24.00;;;;;;;15.89;57.30;100057.97;5036835;28;20046;-77
2023/03/23 01:43:22;;;;;;;25.20;23.80;;;;;;;15.91;57.35;100053.03;5036800;28;20037;-77
2023/03/23 01:45:47;;;;;;;25.15;23.85;;;;;;;15.91;57.40;100048.38;5037325;28;20052;-78
2023/03/23 01:48:20;;;;;;;25.27;23.98;;;;;;;15.90;57.33;100045.94;5036530;28;20505;-77
2023/03/23 01:50:58;;;;;;;26.52;25.02;;;;;;;15.89;57.29;100044.34;5037432;28;20358;-78
2023/03/23 01:53:30;;;;;;;24.98;23.42;;;;;;;15.90;57.22;100045.94;5036891;28;20037;-78
2023/03/23 01:55:57;;;;;;;25.65;24.25;;;;;;;15.84;57.26;100028.88;5037100;28;20036;-77
2023/03/23 01:58:27;;;;;;;25.40;23.90;;;;;;;15.87;57.19;100024.75;5036693;28;20442;-77
2023/03/23 02:00:55;;;;;;;24.45;23.13;;;;;;;15.86;57.58;100029.41;5036565;28;20079;-77
2023/03/23 02:03:23;;;;;;;24.17;22.92;;;;;;;15.87;57.53;100016.59;5036401;28;20040;-78
2023/03/23 02:05:49;;;;;;;23.75;22.55;;;;;;;15.86;57.49;100007.59;5036233;28;20040;-78
2023/03/23 02:08:16;;;;;;;26.50;24.55;;;;;;;15.88;57.16;100013.56;5036172;28;20136;-77
2023/03/23 02:10:41;;;;;;;25.65;24.27;;;;;;;15.88;57.39;100016.31;5035715;28;20064;-76
2023/03/23 02:13:09;;;;;;;26.20;24.75;;;;;;;15.89;57.43;100007.00;5035767;28;20065;-78
2023/03/23 02:15:49;;;;;;;24.83;23.33;;;;;;;15.87;57.42;100014.66;5036326;28;20033;-78
2023/03/23 02:18:27;;;;;;;25.55;24.15;;;;;;;15.87;57.53;100014.66;5035965;28;20036;-77
2023/03/23 02:21:50;;;;;;;25.15;23.88;;;;;;;15.84;57.62;100023.44;5036534;28;20095;-77
2023/03/23 02:24:51;;;;;;;22.33;21.13;;;;;;;15.82;57.54;100020.19;4955853;28;20050;-78
2023/03/23 02:27:23;;;;;;;24.10;22.90;;;;;;;15.81;57.47;100018.59;5036263;28;20037;-77
2023/03/23 02:30:24;;;;;;;25.35;23.98;;;;;;;15.84;57.12;100028.88;5035942;28;20064;-78
2023/03/23 02:33:08;;;;;;;24.55;23.15;;;;;;;15.84;57.22;100020.72;5036447;28;20033;-78
2023/03/23 02:35:59;;;;;;;26.35;24.77;;;;;;;15.83;57.53;100016.38;5035594;28;20477;-77
2023/03/23 02:38:40;;;;;;;24.85;23.48;;;;;;;15.81;57.19;100020.50;5035749;28;20029;-78
2023/03/23 02:41:08;;;;;;;28.15;26.38;;;;;;;15.85;57.63;100016.06;5035657;28;20033;-78
2023/03/23 02:43:40;;;;;;;23.98;22.77;;;;;;;15.85;57.32;100011.44;5035325;28;20033;-76
2023/03/23 02:46:10;;;;;;;25.35;24.00;;;;;;;15.87;57.41;100016.59;5036059;28;20053;-77
2023/03/23 02:48:37;;;;;;;23.75;22.55;;;;;;;15.85;57.41;100011.44;5035797;28;20116;-77
2023/03/23 02:51:05;;;;;;;26.65;25.00;;;;;;;15.88;57.56;100013.56;5035408;28;20036;-78
2023/03/23 02:53:34;;;;;;;23.15;21.95;;;;;;;15.89;57.23;100011.66;5035807;28;20021;-77
2023/03/23 02:56:02;;;;;;;;;;;;;;;15.85;57.21;100008.72;5035670;28;20372;-77
2023/03/23 02:58:29;;;;;;;22.98;21.70;;;;;;;15.81;57.67;100013.13;5035337;28;19999;-77
2023/03/23 03:00:56;;;;;;;24.65;23.23;;;;;;;15.85;57.26;100016.06;5035389;28;20124;-77
2023/03/23 03:03:26;;;;;;;23.58;22.38;;;;;;;15.86;57.26;100014.97;5035117;28;20037;-77
2023/03/23 03:06:13;;;;;;;25.08;23.67;;;;;;;15.85;57.26;100018.78;5035158;28;20473;-77
2023/03/23 03:08:39;;;;;;;24.45;23.25;;;;;;;15.85;57.46;100005.16;5035386;28;20033;-77
2023/03/23 03:11:16;;;;;;;25.80;24.38;;;;;;;15.86;57.39;100007.59;5034732;28;20032;-78
2023/03/23 03:13:53;;;;;;;24.75;23.45;;;;;;;15.87;57.20;100011.94;5035000;28;20045;-78
2023/03/23 03:16:35;;;;;;;26.02;24.73;;;;;;;15.84;57.45;100009.81;5035068;28;20064;-78
2023/03/23 03:19:06;;;;;;;27.85;26.23;;;;;;;15.83;57.21;100013.66;5035396;28;20045;-77
2023/03/23 03:21:38;;;;;;;24.95;23.38;;;;;;;15.86;57.46;100014.97;5034914;28;20481;-78
2023/03/23 03:24:10;;;;;;;25.23;23.83;;;;;;;15.85;57.46;100021.50;5034639;28;20466;-78
2023/03/23 03:26:39;;;;;;;25.42;24.05;;;;;;;15.86;57.79;100021.22;5035459;28;20025;-78
2023/03/23 03:29:06;;;;;;;27.23;25.65;;;;;;;15.87;57.38;100025.56;5033338;28;20059;-77
2023/03/23 03:31:37;;;;;;;24.80;23.40;;;;;;;15.85;57.70;100024.22;5034661;28;20470;-78
2023/03/23 03:34:03;;;;;;;26.63;25.13;;;;;;;15.87;57.22;100022.03;5034973;28;20366;-77
2023/03/23 03:36:34;;;;;;;25.65;24.25;;;;;;;15.89;57.27;100025.28;5034693;28;20082;-78
2023/03/23 03:39:07;;;;;;;24.35;23.15;;;;;;;15.90;57.10;100027.72;5035081;28;20030;-77
2023/03/23 03:41:35;;;;;;;24.80;23.55;;;;;;;15.91;57.39;100014.91;5034614;28;20373;-78
2023/03/23 03:44:01;;;;;;;24.00;22.75;;;;;;;15.91;57.22;100020.34;5049318;28;20036;-77
2023/03/23 03:46:29;;;;;;;25.52;24.13;;;;;;;15.90;57.40;100010.53;5034513;28;20104;-77
2023/03/23 03:48:58;;;;;;;26.65;25.27;;;;;;;15.89;57.46;100015.19;5034376;28;20521;-77
2023/03/23 03:51:26;;;;;;;24.92;23.63;;;;;;;15.90;57.26;100029.59;5033914;28;20033;-78
2023/03/23 03:53:51;;;;;;;26.17;24.77;;;;;;;15.92;57.21;100017.31;5050003;28;20036;-77
2023/03/23 03:56:17;;;;;;;26.85;25.35;;;;;;;15.95;57.15;100026.81;5033822;28;20029;-78
2023/03/23 03:58:42;;;;;;;25.02;23.73;;;;;;;15.92;57.04;100030.13;5034486;28;20065;-77
2023/03/23 04:01:12;;;;;;;25.27;23.88;;;;;;;15.89;57.24;100023.34;5032935;28;20044;-77
2023/03/23 04:03:38;;;;;;;24.25;23.05;;;;;;;15.92;57.34;100024.69;5033034;28;20493;-78
2023/03/23 04:06:04;;;;;;;24.58;23.33;;;;;;;15.91;57.10;100023.88;5034039;28;20029;-77
2023/03/23 04:08:31;;;;;;;26.23;24.83;;;;;;;15.91;57.09;100031.25;5049333;28;20454;-77
2023/03/23 04:10:57;;;;;;;25.10;23.90;;;;;;;15.92;57.30;100024.69;5032962;28;20029;-79
2023/03/23 04:13:23;;;;;;;25.70;24.30;;;;;;;15.90;56.80;100016.81;5033837;28;20033;-78
2023/03/23 04:15:48;;;;;;;26.13;24.73;;;;;;;15.90;56.90;100029.59;5033997;28;20041;-79
2023/03/23 04:18:17;;;;;;;26.27;24.80;;;;;;;15.88;56.90;100037.28;5033912;28;20045;-78
2023/03/23 04:20:44;;;;;;;25.17;23.92;;;;;;;15.88;57.20;100035.38;5033861;28;20034;-78
2023/03/23 04:23:10;;;;;;;25.73;24.33;;;;;;;15.90;56.83;100046.78;5033781;28;20041;-78
2023/03/23 04:25:35;;;;;;;25.35;23.80;;;;;;;15.90;56.89;100049.50;5033828;28;20056;-78
2023/03/23 04:28:01;;;;;;;25.38;24.08;;;;;;;15.90;56.87;100052.22;5034043;28;20045;-78
2023/03/23 04:30:29;;;;;;;26.35;24.95;;;;;;;15.91;57.22;100061.19;5033635;28;20037;-78
2023/03/23 04:32:55;;;;;;;24.90;23.60;;;;;;;15.93;56.72;100065.25;5033380;28;20429;-78
2023/03/23 04:35:24;;;;;;;25.65;24.25;;;;;;;15.88;56.93;100064.53;5033277;28;20025;-78
2023/03/23 04:37:50;;;;;;;27.25;25.83;;;;;;;15.87;56.72;100060.97;5033708;28;20026;-78
2023/03/23 04:40:17;;;;;;;26.85;25.35;;;;;;;15.91;57.18;100063.91;5033614;28;20036;-78
2023/03/23 04:42:46;;;;;;;25.60;24.10;;;;;;;15.91;57.13;100055.75;5034075;28;20042;-77
2023/03/23 04:45:21;;;;;;;26.60;25.10;;;;;;;15.90;56.52;100065.84;5032973;28;20053;-78
2023/03/23 04:47:52;;;;;;;26.20;24.52;;;;;;;15.90;57.04;100051.38;5033576;28;20045;-76
2023/03/23 04:50:21;;;;;;;26.98;25.58;;;;;;;15.92;56.75;100050.00;5034292;28;20080;-77
2023/03/23 04:52:47;;;;;;;24.38;23.13;;;;;;;15.94;57.02;100046.97;5033701;28;20115;-78
2023/03/23 04:55:13;;;;;;;27.17;25.45;;;;;;;15.94;56.69;100058.69;5033321;28;20038;-77
2023/03/23 04:57:40;;;;;;;24.60;23.40;;;;;;;15.92;57.07;100051.91;5033959;28;20029;-78
2023/03/23 05:00:12;;;;;;;25.02;23.75;;;;;;;15.92;56.70;100051.91;5033139;28;20417;-77
2023/03/23 05:02:39;;;;;;;25.17;23.88;;;;;;;15.90;56.82;100045.94;5033312;28;20462;-79
2023/03/23 05:05:09;;;;;;;24.90;23.50;;;;;;;15.91;56.93;100045.66;5033347;28;20470;-78
2023/03/23 05:07:36;;;;;;;25.05;23.83;;;;;;;15.91;56.95;100056.56;5034235;28;20029;-79
2023/03/23 05:10:02;;;;;;;24.23;23.02;;;;;;;15.93;56.67;100057.06;5034206;28;20026;-79
2023/03/23 05:12:28;;;;;;;26.08;24.77;;;;;;;15.95;56.70;100057.59;5049385;28;20048;-78
2023/03/23 05:14:53;;;;;;;23.95;22.75;;;;;;;15.94;57.00;100058.69;5033339;28;20034;-79
2023/03/23 05:17:19;;;;;;;26.02;24.42;;;;;;;15.95;56.72;100057.59;5032159;28;20099;-78
2023/03/23 05:19:47;;;;;;;24.55;23.27;;;;;;;15.95;56.97;100057.59;5033470;28;20484;-78
2023/03/23 05:22:15;;;;;;;26.07;24.67;;;;;;;15.95;56.89;100049.44;5034023;28;20037;-78
2023/03/23 05:24:42;;;;;;;24.15;22.65;;;;;;;15.97;56.70;100063.53;5033339;28;20073;-78
2023/03/23 05:27:11;;;;;;;25.02;23.77;;;;;;;15.96;57.12;100061.13;5034515;28;20043;-77
2023/03/23 05:29:36;;;;;;;25.23;23.80;;;;;;;15.91;57.15;100050.31;5033872;28;20037;-78
2023/03/23 05:32:05;;;;;;;25.45;24.15;;;;;;;15.92;56.86;100051.91;5034215;28;20411;-77
2023/03/23 05:34:32;;;;;;;24.73;23.50;;;;;;;15.91;56.73;100067.44;5033830;28;20033;-78
2023/03/23 05:36:58;;;;;;;26.08;24.73;;;;;;;15.93;57.20;100062.53;5033706;28;20057;-78
2023/03/23 05:39:24;;;;;;;27.42;25.83;;;;;;;15.95;56.77;100054.03;5033706;28;20037;-78
2023/03/23 05:41:50;;;;;;;25.88;24.48;;;;;;;15.94;57.00;100061.41;5033954;28;20092;-78
2023/03/23 05:44:16;;;;;;;26.10;24.63;;;;;;;15.96;57.05;100063.84;5033020;28;20030;-79
2023/03/23 05:46:41;;;;;;;25.70;24.40;;;;;;;15.94;56.75;100064.13;5034496;28;20049;-78
2023/03/23 05:49:07;;;;;;;25.45;24.15;;;;;;;15.94;56.92;100058.69;5037328;28;20116;-78
2023/03/23 05:51:33;;;;;;;26.00;24.70;;;;;;;15.94;56.65;100064.13;5037221;28;20034;-78
2023/03/23 05:54:01;;;;;;;27.55;25.60;;;;;;;15.92;57.04;100055.44;5036963;28;20075;-78
2023/03/23 05:56:27;;;;;;;25.33;23.98;;;;;;;15.93;56.80;100064.44;5036893;28;20454;-78
2023/03/23 05:58:54;;;;;;;24.10;22.90;;;;;;;15.91;56.81;100072.91;5037226;28;20064;-78
2023/03/23 06:01:20;;;;;;;26.27;24.85;;;;;;;15.90;56.91;100070.47;5036449;28;20067;-78
2023/03/23 06:03:45;;;;;;;25.40;24.13;;;;;;;15.90;56.97;100074.00;5036429;28;20045;-79
2023/03/23 06:06:12;;;;;;;24.42;23.23;;;;;;;15.90;56.68;100074.00;5037101;28;20044;-79
2023/03/23 06:08:38;;;;;;;25.48;24.17;;;;;;;15.90;57.07;100079.47;5036433;28;20469;-78
2023/03/23 06:11:04;;;;;;;25.15;23.88;;;;;;;15.94;57.03;100094.09;5036153;28;20025;-77
2023/03/23 06:13:29;;;;;;;26.35;24.95;;;;;;;15.93;56.91;100106.09;5036328;28;20083;-79
2023/03/23 06:15:58;;;;;;;25.30;24.00;;;;;;;15.95;56.92;100105.78;5051686;28;20041;-76
2023/03/23 06:18:24;;;;;;;24.15;22.85;;;;;;;15.95;56.86;100108.50;5034700;28;20040;-78
2023/03/23 06:20:50;;;;;;;25.08;23.88;;;;;;;15.94;57.08;100107.72;5036069;28;20041;-76
2023/03/23 06:23:17;;;;;;;26.63;25.17;;;;;;;15.90;57.10;100114.03;5036344;28;20104;-77
2023/03/23 06:25:43;;;;;;;24.63;23.33;;;;;;;15.89;57.08;100121.41;5036674;28;20094;-77
2023/03/23 06:28:09;;;;;;;24.58;23.23;;;;;;;15.91;57.06;100113.75;5036471;28;20060;-80
2023/03/23 06:30:36;;;;;;;25.17;23.95;;;;;;;15.93;57.02;100110.75;5035819;28;20029;-79
2023/03/23 06:33:05;;;;;;;27.08;25.48;;;;;;;15.89;57.17;100129.56;5036012;28;20029;-78
2023/03/23 06:35:31;;;;;;;26.45;24.98;;;;;;;15.87;57.29;100137.22;5035800;28;20034;-79
2023/03/23 06:38:01;;;;;;;24.17;22.98;;;;;;;15.86;57.06;100143.78;5036522;28;20510;-78
2023/03/23 06:40:28;;;;;;;25.27;23.88;;;;;;;15.84;57.10;100147.91;5034527;28;20041;-77
2023/03/23 06:42:54;;;;;;;25.70;24.10;;;;;;;15.90;57.22;100160.34;5036173;28;20033;-79
2023/03/23 06:45:19;;;;;;;26.60;24.95;;;;;;;15.92;56.83;100160.84;5035386;28;20045;-78
2023/03/23 06:47:48;;;;;;;24.67;23.48;;;;;;;15.91;57.14;100159.25;5035867;28;20446;-78
2023/03/23 06:50:15;;;;;;;23.83;22.63;;;;;;;15.91;57.20;100162.78;5035511;28;20026;-78
2023/03/23 06:52:40;;;;;;;24.60;23.30;;;;;;;15.91;57.04;100157.34;5035877;28;20092;-78
2023/03/23 06:55:06;;;;;;;24.60;23.40;;;;;;;15.92;57.02;100148.03;5036144;28;20069;-79
2023/03/23 06:57:32;;;;;;;24.85;23.50;;;;;;;15.92;57.27;100156.22;5035813;28;20493;-79
2023/03/23 06:59:57;;;;;;;24.33;22.95;;;;;;;15.92;57.00;100164.38;5035316;28;20050;-79
2023/03/23 07:02:23;;;;;;;25.48;24.17;;;;;;;15.95;57.13;100165.72;5035460;28;20029;-79
2023/03/23 07:04:48;;;;;;;24.73;23.35;;;;;;;15.95;57.21;100150.22;5035167;28;20049;-79
2023/03/23 07:07:18;;;;;;;24.33;23.13;;;;;;;15.93;56.95;100152.41;5033957;28;20029;-79
2023/03/23 07:09:43;;;;;;;24.45;23.10;;;;;;;15.95;56.87;100163.00;5035850;28;20038;-77
2023/03/23 07:12:09;;;;;;;25.05;23.73;;;;;;;15.93;57.24;100174.19;5035103;28;20531;-74
2023/03/23 07:14:35;;;;;;;25.38;23.98;;;;;;;15.86;57.50;100170.22;5034997;28;20429;-79
2023/03/23 07:17:02;;;;;;;25.10;23.65;;;;;;;15.77;57.76;100150.97;5035135;28;20091;-78
2023/03/23 07:19:27;;;;;;;25.33;23.88;;;;;;;15.81;57.94;100162.09;5034826;28;20055;-78
2023/03/23 07:21:52;;;;;;;25.45;24.00;;;;;;;15.84;57.28;100169.69;5033950;28;20040;-77
2023/03/23 07:24:19;;;;;;;24.38;23.10;;;;;;;15.87;57.21;100172.63;5035337;28;20038;-77
2023/03/23 07:26:44;;;;;;;23.65;22.48;;;;;;;15.87;57.26;100169.91;5034763;28;20037;-77
2023/03/23 07:29:09;;;;;;;25.13;23.75;;;;;;;15.90;57.54;100171.22;5034741;28;20537;-76
2023/03/23 07:31:35;;;;;;;28.05;26.10;;;;;;;15.92;57.24;100178.00;5034634;28;20025;-79
2023/03/23 07:34:02;;;;;;;24.30;23.10;;;;;;;15.91;57.14;100179.13;5034780;28;20033;-76
2023/03/23 07:36:28;;;;;;;26.48;25.08;;;;;;;15.90;56.93;100191.13;5034590;28;20083;-76
2023/03/23 07:38:54;;;;;;;23.75;22.55;;;;;;;15.93;57.15;100200.63;5033332;28;20129;-77
2023/03/23 07:41:20;;;;;;;24.98;23.67;;;;;;;15.91;57.25;100208.28;5035144;28;20041;-77
2023/03/23 07:43:46;;;;;;;23.95;22.70;;;;;;;15.92;57.07;100209.88;5034487;28;20034;-77
2023/03/23 07:46:12;;;;;;;24.55;23.35;;;;;;;15.92;57.01;100213.41;5034532;28;20053;-77
2023/03/23 07:48:38;;;;;;;25.00;23.60;;;;;;;15.93;57.07;100203.34;5035321;28;20033;-77
2023/03/23 07:51:04;;;;;;;24.70;23.17;;;;;;;15.92;57.14;100207.97;5034195;28;20037;-77
2023/03/23 07:53:31;;;;;;;25.00;23.70;;;;;;;15.87;57.24;100210.75;5034504;28;20053;-77
2023/03/23 07:55:57;;;;;;;24.83;23.63;;;;;;;15.91;56.81;100219.97;5034718;28;20045;-77
2023/03/23 07:58:23;;;;;;;23.90;22.70;;;;;;;15.91;57.29;100216.44;5034699;28;20037;-76
2023/03/23 08:00:48;;;;;;;23.42;22.33;;;;;;;15.91;57.43;100219.16;5034190;28;20371;-77
2023/03/23 08:03:15;;;;;;;26.50;25.17;;;;;;;15.92;56.91;100220.78;5032892;28;20037;-77
2023/03/23 08:05:41;;;;;;;25.90;24.50;;;;;;;15.90;56.95;100221.09;5033692;28;20183;-77
2023/03/23 08:08:07;;;;;;;24.92;23.42;;;;;;;15.90;57.23;100220.25;5034294;28;20033;-77
2023/03/23 08:10:33;;;;;;;24.80;23.50;;;;;;;15.91;57.04;100221.91;5032441;28;20436;-77
2023/03/23 08:12:59;;;;;;;24.20;23.00;;;;;;;15.90;56.94;100220.25;5033965;28;20462;-77
2023/03/23 08:15:26;;;;;;;25.08;23.75;;;;;;;15.91;56.78;100228.16;5033787;28;20037;-77
2023/03/23 08:17:52;;;;;;;25.13;23.92;;;;;;;15.90;56.91;100220.25;5033828;28;20409;-76
2023/03/23 08:20:18;;;;;;;24.85;23.65;;;;;;;15.89;57.15;100229.53;5033584;28;20038;-77
2023/03/23 08:22:52;;;;;;;24.13;22.92;;;;;;;15.87;57.00;100215.41;5033847;28;20037;-77
2023/03/23 08:25:19;;;;;;;26.38;24.98;;;;;;;15.89;56.79;100207.75;5034120;28;20033;-77
2023/03/23 08:27:44;;;;;;;24.48;23.17;;;;;;;15.89;56.91;100211.28;5034101;28;20378;-77
2023/03/23 08:30:16;;;;;;;26.17;24.83;;;;;;;15.89;57.03;100214.00;5033904;28;20040;-77
2023/03/23 08:32:42;;;;;;;25.05;23.75;;;;;;;15.89;56.86;100221.38;5033931;28;20029;-77
2023/03/23 08:35:10;;;;;;;23.83;22.20;;;;;;;15.89;57.02;100237.72;5034491;28;20036;-77
2023/03/23 08:37:36;;;;;;;22.33;21.13;;;;;;;15.88;56.80;100239.63;5033907;28;20466;-77
2023/03/23 08:40:10;;;;;;;23.33;22.13;;;;;;;15.86;57.13;100236.38;5033412;28;20065;-78
2023/03/23 08:42:37;;;;;;;25.60;24.10;;;;;;;15.86;57.17;100249.19;5036191;28;20036;-76
2023/03/23 08:45:07;;;;;;;24.10;22.90;;;;;;;15.86;56.91;100249.19;5035511;28;20044;-77
2023/03/23 08:47:33;;;;;;;24.60;23.30;;;;;;;15.85;56.98;100256.56;5033477;28;20131;-76
2023/03/23 08:49:58;;;;;;;23.77;22.25;;;;;;;15.85;56.71;100259.28;5037236;28;20501;-77
2023/03/23 08:52:24;;;;;;;22.65;21.55;;;;;;;15.86;56.85;100257.38;5047952;28;20041;-77
2023/03/23 08:54:50;;;;;;;25.10;23.90;;;;;;;15.85;57.25;100256.56;5064576;28;20045;-77
2023/03/23 08:57:16;;;;;;;22.92;21.83;;;;;;;15.84;57.25;100237.78;5045216;28;20097;-77
2023/03/23 08:59:42;;;;;;;25.25;23.88;;;;;;;15.84;56.93;100237.78;5036604;28;20087;-77
2023/03/23 09:02:11;;;;;;;22.80;21.70;;;;;;;15.84;57.09;100230.41;5035849;28;20033;-76
2023/03/23 09:04:42;;;;;;;25.88;24.48;;;;;;;15.84;56.99;100233.13;5042190;28;20112;-77
2023/03/23 09:07:10;;;;;;;25.10;23.77;;;;;;;15.85;57.23;100234.78;5037779;28;20025;-77
2023/03/23 09:09:37;;;;;;;25.33;24.02;;;;;;;15.85;56.84;100239.38;5036938;28;20033;-75
2023/03/23 09:12:03;;;;;;;23.17;21.95;;;;;;;15.86;57.11;100244.56;5037344;28;20350;-76
2023/03/23 09:14:28;;;;;;;23.70;22.50;;;;;;;15.86;57.20;100249.19;5054256;28;20052;-76
2023/03/23 09:16:53;;;;;;;24.40;22.88;;;;;;;15.86;57.14;100244.56;5037440;28;20034;-73
2023/03/23 09:19:20;;;;;;;24.80;23.60;;;;;;;15.86;57.06;100238.28;5036085;28;20060;-76
2023/03/23 09:21:45;;;;;;;23.90;22.60;;;;;;;15.86;56.79;100233.66;5038484;28;20118;-76
2023/03/23 09:24:11;;;;;;;23.58;22.40;;;;;;;15.88;57.12;100231.47;5040781;28;20129;-77
2023/03/23 09:26:37;;;;;;;24.90;23.50;;;;;;;15.88;57.16;100231.47;5041648;28;20041;-76
2023/03/23 09:29:03;;;;;;;23.33;21.83;;;;;;;15.89;56.77;100232.25;5042100;28;20420;-76
2023/03/23 09:31:31;;;;;;;23.35;22.10;;;;;;;15.88;57.28;100238.81;5058663;28;20063;-76
2023/03/23 09:33:58;;;;;;;22.63;21.42;;;;;;;15.85;57.29;100244.81;5042025;28;20029;-76
2023/03/23 09:36:25;;;;;;;23.00;21.80;;;;;;;15.86;57.11;100246.47;5041108;28;20489;-76
2023/03/23 09:38:52;;;;;;;23.70;22.50;;;;;;;15.85;57.26;100240.22;5040641;28;20045;-75
2023/03/23 09:42:05;;;;;;;23.63;22.42;;;;;;;15.85;57.46;100240.22;5040297;28;20037;-75
2023/03/23 09:44:37;;;;;;;24.50;23.27;;;;;;;15.88;57.18;100249.72;4977762;28;20046;-75
2023/03/23 09:47:36;;;;;;;21.67;20.58;;;;;;;15.91;57.30;100260.03;4978135;28;20047;-76
2023/03/23 09:50:34;;;;;;;25.00;23.45;;;;;;;15.89;57.41;100246.69;5025298;28;20466;-76
2023/03/23 09:53:12;;;;;;;21.63;20.52;;;;;;;15.91;57.59;100257.31;5023951;28;20508;-76
2023/03/23 09:55:37;;;;;;;23.75;22.45;;;;;;;15.93;57.69;100272.25;5037032;28;20026;-75
2023/03/23 09:58:31;;;;;;;23.48;22.27;;;;;;;15.96;57.19;100279.03;5037078;28;20025;-76
2023/03/23 10:01:09;;;;;;;23.15;21.95;;;;;;;15.93;57.83;100271.44;5036356;28;20036;-76
2023/03/23 10:03:42;;;;;;;;;;;;;;;15.91;57.92;100279.91;5037504;28;20041;-75
2023/03/23 10:06:17;;;;;;;23.40;22.20;;;;;;;15.91;58.07;100260.84;5053270;28;19909;-75
2023/03/23 10:08:48;;;;;;;25.27;23.83;;;;;;;15.93;57.85;100276.91;5036941;28;20025;-76
2023/03/23 10:11:41;;;;;;;24.45;23.15;;;;;;;15.94;57.87;100273.06;5036969;28;20116;-76
2023/03/23 10:14:16;;;;;;;25.92;24.58;;;;;;;15.91;57.94;100274.44;5035476;28;20075;-77
2023/03/23 10:17:13;;;;;;;24.30;22.90;;;;;;;15.92;58.05;100275.25;5037509;28;20037;-76
2023/03/23 10:19:47;;;;;;;24.75;23.48;;;;;;;15.95;57.96;100280.13;5039304;28;20032;-77
2023/03/23 10:22:16;;;;;;;24.88;23.58;;;;;;;15.96;58.39;100274.38;5035407;28;20033;-76
2023/03/23 10:24:59;;;;;;;24.20;22.90;;;;;;;15.99;58.09;100279.25;5051531;28;20034;-76
2023/03/23 10:28:04;;;;;;;25.52;24.13;;;;;;;16.02;58.26;100284.13;5037387;28;20033;-76
2023/03/23 10:30:34;;;;;;;23.60;22.38;;;;;;;16.02;58.23;100273.22;5036882;28;20383;-75
2023/03/23 10:33:11;;;;;;;25.90;24.55;;;;;;;16.02;58.19;100275.94;5035767;28;20029;-76
2023/03/23 10:35:43;;;;;;;24.77;23.42;;;;;;;16.07;58.10;100277.00;5035950;28;20036;-75
2023/03/23 10:38:22;;;;;;;24.63;22.35;;;;;;;16.10;57.88;100285.41;5036964;28;20036;-75
2023/03/23 10:40:56;;;;;;;25.30;23.75;;;;;;;16.12;58.12;100272.28;5036027;28;20036;-76
2023/03/23 10:43:23;;;;;;;25.92;24.45;;;;;;;16.16;57.90;100280.72;5035877;28;20073;-77
2023/03/23 10:45:59;;;;;;;24.73;23.25;;;;;;;16.17;57.87;100277.69;5034625;28;20040;-76
2023/03/23 10:48:36;;;;;;;24.52;23.05;;;;;;;16.17;58.32;100272.22;5037114;28;20041;-76
2023/03/23 10:51:04;;;;;;;24.00;22.80;;;;;;;16.15;58.26;100287.25;5036099;28;20030;-77
2023/03/23 10:53:49;;;;;;;23.55;22.25;;;;;;;16.17;58.46;100269.50;5050703;28;20393;-77
2023/03/23 10:56:24;;;;;;;24.90;23.60;;;;;;;16.19;58.34;100263.78;5035837;28;20036;-76
2023/03/23 10:58:49;;;;;;;27.02;25.35;;;;;;;16.16;58.59;100276.06;5035358;28;20101;-77
2023/03/23 11:01:19;;;;;;;26.98;25.42;;;;;;;16.18;58.51;100276.59;5035549;28;20108;-76
2023/03/23 11:03:48;;;;;;;26.20;24.75;;;;;;;16.21;58.43;100286.91;5035350;28;20029;-77
2023/03/23 11:06:27;;;;;;;27.27;25.77;;;;;;;16.23;58.44;100275.72;5035140;28;20052;-77
2023/03/23 11:08:52;;;;;;;25.92;24.15;;;;;;;16.28;58.20;100272.94;5035377;28;20113;-76
2023/03/23 11:11:26;;;;;;;25.77;24.25;;;;;;;16.30;58.28;100278.88;5035300;28;20061;-77
2023/03/23 11:13:59;;;;;;;25.90;24.38;;;;;;;16.33;58.18;100278.31;5035196;28;20069;-77
2023/03/23 11:16:31;;;;;;;25.73;24.20;;;;;;;16.37;58.16;100284.78;5034988;28;20033;-76
2023/03/23 11:18:59;;;;;;;26.65;25.08;;;;;;;16.40;58.10;100272.47;5035522;28;20076;-77
2023/03/23 11:21:27;;;;;;;25.23;23.85;;;;;;;16.38;58.12;100282.91;5034831;28;20112;-77